createdAt,value
2018-07-15T00:02:00.620Z,4.47
2018-07-15T00:04:29.187Z,4.30
2018-07-15T00:06:57.788Z,5.07
2018-07-15T00:09:26.351Z,5.87
2018-07-15T00:11:54.912Z,4.47
2018-07-15T00:14:23.504Z,4.70
2018-07-15T00:16:52.052Z,4.20
2018-07-15T00:19:20.692Z,4.17
2018-07-15T00:21:49.275Z,5.03
2018-07-15T00:24:17.860Z,4.40
2018-07-15T00:26:46.552Z,4.90
2018-07-15T00:29:17.421Z,5.53
2018-07-15T00:31:46.133Z,4.97
2018-07-15T00:34:14.783Z,5.37
2018-07-15T00:36:43.402Z,4.40
2018-07-15T00:39:12.500Z,4.30
2018-07-15T00:41:41.105Z,5.03
2018-07-15T00:44:09.852Z,5.50
2018-07-15T00:46:38.480Z,4.63
2018-07-15T00:49:07.684Z,5.00
2018-07-15T00:51:36.236Z,5.00
2018-07-15T00:54:04.820Z,4.40
2018-07-15T00:56:33.452Z,5.17
2018-07-15T00:59:02.181Z,5.13
2018-07-15T01:01:30.914Z,4.77
2018-07-15T01:03:59.750Z,4.97
2018-07-15T01:06:28.688Z,4.60
2018-07-15T01:08:57.449Z,5.20
2018-07-15T01:11:26.130Z,5.40
2018-07-15T01:14:01.249Z,4.50
2018-07-15T01:16:29.812Z,4.83
2018-07-15T01:18:58.389Z,5.50
2018-07-15T01:21:27.012Z,5.00
2018-07-15T01:23:55.561Z,5.03
2018-07-15T01:26:24.231Z,6.57
2018-07-15T01:28:52.793Z,6.03
2018-07-15T01:31:21.342Z,5.80
2018-07-15T01:33:49.899Z,4.90
2018-07-15T01:36:18.456Z,4.60
2018-07-15T01:38:47.053Z,6.33
2018-07-15T01:41:15.696Z,5.50
2018-07-15T01:43:44.229Z,5.23
2018-07-15T01:46:12.872Z,4.97
2018-07-15T01:48:41.421Z,5.53
2018-07-15T01:51:10.420Z,6.10
2018-07-15T01:53:39.053Z,6.47
2018-07-15T01:56:07.636Z,5.70
2018-07-15T01:58:36.183Z,5.13
2018-07-15T02:01:04.740Z,5.60
2018-07-15T02:03:33.516Z,5.23
2018-07-15T02:06:02.041Z,6.57
2018-07-15T02:08:30.721Z,5.70
2018-07-15T02:10:59.247Z,4.50
2018-07-15T02:13:27.796Z,5.60
2018-07-15T02:15:56.340Z,4.83
2018-07-15T02:18:24.879Z,5.13
2018-07-15T02:20:53.439Z,5.10
2018-07-15T02:23:22.028Z,5.23
2018-07-15T02:25:50.558Z,6.50
2018-07-15T02:28:19.255Z,5.47
2018-07-15T02:30:47.805Z,5.60
2018-07-15T02:33:16.689Z,5.80
2018-07-15T02:35:45.284Z,6.00
2018-07-15T02:38:13.884Z,4.97
2018-07-15T02:40:42.564Z,5.40
2018-07-15T02:43:11.416Z,5.43
2018-07-15T02:45:39.965Z,4.70
2018-07-15T02:48:08.530Z,5.63
2018-07-15T02:50:37.150Z,5.60
2018-07-15T02:53:06.221Z,6.30
2018-07-15T02:55:34.936Z,5.00
2018-07-15T02:58:03.531Z,5.13
2018-07-15T03:00:32.084Z,4.70
2018-07-15T03:03:01.264Z,5.63
2018-07-15T03:05:29.824Z,5.70
2018-07-15T03:07:58.379Z,5.40
2018-07-15T03:10:26.999Z,5.73
2018-07-15T03:12:55.572Z,6.43
2018-07-15T03:15:24.257Z,5.30
2018-07-15T03:17:52.804Z,5.50
2018-07-15T03:20:21.440Z,6.53
2018-07-15T03:22:50.037Z,5.70
2018-07-15T03:25:19.280Z,5.70
2018-07-15T03:27:47.830Z,6.60
2018-07-15T03:30:16.445Z,5.70
2018-07-15T03:32:44.992Z,5.87
2018-07-15T03:35:17.572Z,4.43
2018-07-15T03:37:46.136Z,5.43
2018-07-15T03:40:14.661Z,6.17
2018-07-15T03:42:43.233Z,6.00
2018-07-15T03:45:13.003Z,5.80
2018-07-15T03:47:41.863Z,4.97
2018-07-15T03:50:10.452Z,5.20
2018-07-15T03:52:38.992Z,5.00
2018-07-15T03:55:07.669Z,6.00
2018-07-15T03:57:36.249Z,5.27
2018-07-15T04:00:05.033Z,5.60
2018-07-15T04:02:33.583Z,5.53
2018-07-15T04:05:02.150Z,5.67
2018-07-15T04:07:30.689Z,5.60
2018-07-15T04:09:59.236Z,6.00
2018-07-15T04:12:27.829Z,4.93
2018-07-15T04:14:56.396Z,6.10
2018-07-15T04:17:24.948Z,5.77
2018-07-15T04:19:53.541Z,4.97
2018-07-15T04:22:22.095Z,5.83
2018-07-15T04:24:50.668Z,5.10
2018-07-15T04:27:19.486Z,5.47
2018-07-15T04:29:48.043Z,5.73
2018-07-15T04:32:16.602Z,5.83
2018-07-15T04:34:45.253Z,5.93
2018-07-15T04:37:13.825Z,5.90
2018-07-15T04:39:42.388Z,5.87
2018-07-15T04:42:11.068Z,5.80
2018-07-15T04:44:39.660Z,5.83
2018-07-15T04:47:08.216Z,5.30
2018-07-15T04:49:36.787Z,5.80
2018-07-15T04:52:05.355Z,6.00
2018-07-15T04:57:24.408Z,6.43
2018-07-15T04:59:52.949Z,6.50
2018-07-15T05:02:21.607Z,6.23
2018-07-15T05:04:50.115Z,6.67
2018-07-15T05:07:19.041Z,6.43
2018-07-15T05:09:47.642Z,6.00
2018-07-15T05:12:16.222Z,5.83
2018-07-15T05:14:44.780Z,5.90
2018-07-15T05:17:13.728Z,7.00
2018-07-15T05:19:42.276Z,5.20
2018-07-15T05:22:10.887Z,6.50
2018-07-15T05:24:39.472Z,7.20
2018-07-15T05:27:08.675Z,7.50
2018-07-15T05:29:37.247Z,7.57
2018-07-15T05:32:05.902Z,8.17
2018-07-15T05:34:34.482Z,7.97
2018-07-15T05:37:03.159Z,8.60
2018-07-15T05:39:31.725Z,7.40
2018-07-15T05:42:00.336Z,8.90
2018-07-15T05:44:28.945Z,8.60
2018-07-15T05:46:57.524Z,7.77
2018-07-15T05:49:26.080Z,7.23
2018-07-15T05:51:54.697Z,8.43
2018-07-15T05:54:23.269Z,8.57
2018-07-15T05:56:51.818Z,6.80
2018-07-15T05:59:20.358Z,8.53
2018-07-15T06:01:48.909Z,6.93
2018-07-15T06:04:17.544Z,7.00
2018-07-15T06:06:46.244Z,7.57
2018-07-15T06:09:17.645Z,8.13
2018-07-15T06:11:46.231Z,8.90
2018-07-15T06:14:14.794Z,8.37
2018-07-15T06:16:43.398Z,6.73
2018-07-15T06:19:12.447Z,6.93
2018-07-15T06:21:41.025Z,8.40
2018-07-15T06:24:09.681Z,7.10
2018-07-15T06:26:38.307Z,8.90
2018-07-15T06:29:06.843Z,7.77
2018-07-15T06:31:35.879Z,8.03
2018-07-15T06:34:04.603Z,7.40
2018-07-15T06:36:33.148Z,8.10
2018-07-15T06:39:01.729Z,8.13
2018-07-15T06:41:30.274Z,7.50
2018-07-15T06:43:58.837Z,6.73
2018-07-15T06:46:27.637Z,7.57
2018-07-15T06:48:56.187Z,7.33
2018-07-15T06:51:24.872Z,7.73
2018-07-15T06:53:53.467Z,7.70
2018-07-15T06:56:22.443Z,7.97
2018-07-15T06:58:51.035Z,7.00
2018-07-15T07:01:19.583Z,7.37
2018-07-15T07:03:48.429Z,8.20
2018-07-15T07:06:17.169Z,8.03
2018-07-15T07:08:45.725Z,7.47
2018-07-15T07:11:15.713Z,8.10
2018-07-15T07:13:44.283Z,7.30
2018-07-15T07:16:12.884Z,7.07
2018-07-15T07:18:41.437Z,7.10
2018-07-15T07:21:13.248Z,8.63
2018-07-15T07:23:44.942Z,7.80
2018-07-15T07:26:13.576Z,7.70
2018-07-15T07:28:42.166Z,7.50
2018-07-15T07:31:11.060Z,7.73
2018-07-15T07:33:39.773Z,7.23
2018-07-15T07:36:08.371Z,7.37
2018-07-15T07:38:37.175Z,7.30
2018-07-15T07:41:05.790Z,6.93
2018-07-15T07:43:34.423Z,7.70
2018-07-15T07:46:03.040Z,6.83
2018-07-15T07:48:31.609Z,6.53
2018-07-15T07:51:00.629Z,6.80
2018-07-15T07:53:29.450Z,7.07
2018-07-15T07:55:58.051Z,7.30
2018-07-15T07:58:26.683Z,7.80
2018-07-15T08:00:55.777Z,6.20
2018-07-15T08:03:24.400Z,6.00
2018-07-15T08:05:55.801Z,7.30
2018-07-15T08:08:24.368Z,6.20
2018-07-15T08:10:52.940Z,6.53
2018-07-15T08:13:21.577Z,7.23
2018-07-15T08:15:50.297Z,6.30
2018-07-15T08:18:19.009Z,6.90
2018-07-15T08:20:47.716Z,6.40
2018-07-15T08:23:16.316Z,6.60
2018-07-15T08:25:44.912Z,6.50
2018-07-15T08:28:13.541Z,5.93
2018-07-15T08:30:53.064Z,6.97
2018-07-15T08:33:21.803Z,6.83
2018-07-15T08:35:50.724Z,7.37
2018-07-15T08:38:19.456Z,6.90
2018-07-15T08:40:48.540Z,6.37
2018-07-15T08:43:17.067Z,7.43
2018-07-15T08:45:45.609Z,6.50
2018-07-15T08:48:14.175Z,6.87
2018-07-15T08:50:43.252Z,8.17
2018-07-15T08:53:13.554Z,6.73
2018-07-15T08:55:42.140Z,6.57
2018-07-15T08:58:11.152Z,7.33
2018-07-15T09:00:39.756Z,6.60
2018-07-15T09:03:08.467Z,7.40
2018-07-15T09:05:37.021Z,7.30
2018-07-15T09:08:05.826Z,7.67
2018-07-15T09:10:34.455Z,7.43
2018-07-15T09:13:03.090Z,6.43
2018-07-15T09:15:31.697Z,7.17
2018-07-15T09:18:00.301Z,7.30
2018-07-15T09:20:29.004Z,6.50
2018-07-15T09:22:57.608Z,7.10
2018-07-15T09:25:26.467Z,7.00
2018-07-15T09:27:55.168Z,7.00
2018-07-15T09:30:23.747Z,8.43
2018-07-15T09:32:52.687Z,7.50
2018-07-15T09:35:21.293Z,6.80
2018-07-15T09:37:49.896Z,7.20
2018-07-15T09:40:18.462Z,8.33
2018-07-15T09:42:47.448Z,6.23
2018-07-15T09:45:16.363Z,6.87
2018-07-15T09:47:44.998Z,10.03
2018-07-15T09:50:13.583Z,8.90
2018-07-15T09:52:42.485Z,7.43
2018-07-15T09:55:12.511Z,7.80
2018-07-15T09:57:41.181Z,7.80
2018-07-15T10:00:12.712Z,7.53
2018-07-15T10:02:41.281Z,7.17
2018-07-15T10:05:10.110Z,7.00
2018-07-15T10:07:38.799Z,7.53
2018-07-15T10:10:08.826Z,7.10
2018-07-15T10:12:37.519Z,6.53
2018-07-15T10:15:06.201Z,7.40
2018-07-15T10:17:34.930Z,6.60
2018-07-15T10:20:03.749Z,5.73
2018-07-15T10:22:32.405Z,6.57
2018-07-15T10:25:01.036Z,7.10
2018-07-15T10:27:29.588Z,6.80
2018-07-15T10:29:58.911Z,7.13
2018-07-15T10:32:27.507Z,6.40
2018-07-15T10:34:56.165Z,7.30
2018-07-15T10:37:24.849Z,5.80
2018-07-15T10:39:53.653Z,7.23
2018-07-15T10:42:22.305Z,7.00
2018-07-15T10:44:50.897Z,7.53
2018-07-15T10:47:19.825Z,6.80
2018-07-15T10:49:48.391Z,6.20
2018-07-15T10:52:17.007Z,7.17
2018-07-15T10:54:45.585Z,7.43
2018-07-15T10:57:14.408Z,8.13
2018-07-15T10:59:42.980Z,8.13
2018-07-15T11:02:11.788Z,7.23
2018-07-15T11:04:40.669Z,8.80
2018-07-15T11:07:09.320Z,7.70
2018-07-15T11:09:38.005Z,7.50
2018-07-15T11:12:06.660Z,7.27
2018-07-15T11:14:35.244Z,7.13
2018-07-15T11:17:03.889Z,7.40
2018-07-15T11:19:32.552Z,7.03
2018-07-15T11:22:07.459Z,7.63
2018-07-15T11:24:36.012Z,7.80
2018-07-15T11:27:04.965Z,6.87
2018-07-15T11:29:33.562Z,6.40
2018-07-15T11:32:02.416Z,7.57
2018-07-15T11:34:30.991Z,7.70
2018-07-15T11:36:59.564Z,8.67
2018-07-15T11:39:28.113Z,7.60
2018-07-15T11:41:56.660Z,7.33
2018-07-15T11:44:25.297Z,7.90
2018-07-15T11:46:53.831Z,7.80
2018-07-15T11:49:23.439Z,8.10
2018-07-15T11:51:52.071Z,7.37
2018-07-15T11:54:20.838Z,7.80
2018-07-15T11:56:49.948Z,7.73
2018-07-15T11:59:18.712Z,6.60
2018-07-15T12:01:47.418Z,8.77
2018-07-15T12:04:17.048Z,7.30
2018-07-15T12:06:45.624Z,8.10
2018-07-15T12:09:15.455Z,7.60
2018-07-15T12:11:44.313Z,8.20
2018-07-15T12:14:12.874Z,7.70
2018-07-15T12:16:41.437Z,7.07
2018-07-15T12:19:10.574Z,7.83
2018-07-15T12:21:39.208Z,6.87
2018-07-15T12:24:07.781Z,8.30
2018-07-15T12:26:36.416Z,7.30
2018-07-15T12:29:05.177Z,8.10
2018-07-15T12:31:33.872Z,7.50
2018-07-15T12:34:02.505Z,7.80
2018-07-15T12:36:31.456Z,8.07
2018-07-15T12:39:00.096Z,7.20
2018-07-15T12:41:28.646Z,7.10
2018-07-15T12:43:57.212Z,7.27
2018-07-15T12:46:25.870Z,8.17
2018-07-15T12:48:54.441Z,6.80
2018-07-15T12:51:23.207Z,6.13
2018-07-15T12:53:51.800Z,6.53
2018-07-15T12:56:20.477Z,7.13
2018-07-15T12:58:49.145Z,6.80
2018-07-15T13:01:17.799Z,6.80
2018-07-15T13:03:46.352Z,7.03
2018-07-15T13:06:15.492Z,7.43
2018-07-15T13:08:44.203Z,6.37
2018-07-15T13:11:13.237Z,6.93
2018-07-15T13:13:41.895Z,7.53
2018-07-15T13:16:10.998Z,6.90
2018-07-15T13:18:39.616Z,7.27
2018-07-15T13:21:08.211Z,6.60
2018-07-15T13:23:36.764Z,6.73
2018-07-15T13:26:05.361Z,5.27
2018-07-15T13:28:33.951Z,6.43
2018-07-15T13:31:02.695Z,6.40
2018-07-15T13:33:31.436Z,7.20
2018-07-15T13:35:59.982Z,5.90
2018-07-15T13:38:28.664Z,5.70
2018-07-15T13:40:57.222Z,6.30
2018-07-15T13:43:25.812Z,6.27
2018-07-15T13:45:54.448Z,5.63
2018-07-15T13:48:23.045Z,6.00
2018-07-15T13:50:51.650Z,5.97
2018-07-15T13:53:20.243Z,5.83
2018-07-15T13:55:48.836Z,7.50
2018-07-15T13:58:17.449Z,6.40
2018-07-15T14:00:46.082Z,6.10
2018-07-15T14:03:14.908Z,6.60
2018-07-15T14:05:44.670Z,5.83
2018-07-15T14:08:13.248Z,5.30
2018-07-15T14:10:41.933Z,5.70
2018-07-15T14:13:12.875Z,7.00
2018-07-15T14:15:41.486Z,6.70
2018-07-15T14:18:10.193Z,6.83
2018-07-15T14:20:38.748Z,6.97
2018-07-15T14:23:07.601Z,6.60
2018-07-15T14:25:36.158Z,6.50
2018-07-15T14:28:04.881Z,6.90
2018-07-15T14:30:33.466Z,6.80
2018-07-15T14:33:02.031Z,6.97
2018-07-15T14:35:30.674Z,5.47
2018-07-15T14:37:59.330Z,5.90
2018-07-15T14:40:27.869Z,5.53
2018-07-15T14:42:56.442Z,5.00
2018-07-15T14:45:25.124Z,4.47
2018-07-15T14:47:53.682Z,4.47
2018-07-15T14:50:22.214Z,4.70
2018-07-15T14:52:50.779Z,4.50
2018-07-15T14:55:19.363Z,4.03
2018-07-15T14:57:47.927Z,4.40
2018-07-15T15:00:16.592Z,4.90
2018-07-15T15:02:45.195Z,4.00
2018-07-15T15:05:14.972Z,4.67
2018-07-15T15:07:43.562Z,4.30
2018-07-15T15:10:12.191Z,4.00
2018-07-15T15:12:40.832Z,4.60
2018-07-15T15:15:09.521Z,3.83
2018-07-15T15:17:38.191Z,4.57
2018-07-15T15:20:06.758Z,4.00
2018-07-15T15:22:35.616Z,3.80
2018-07-15T15:25:04.612Z,4.20
2018-07-15T15:27:33.151Z,4.43
2018-07-15T15:30:01.719Z,3.93
2018-07-15T15:32:30.449Z,3.70
2018-07-15T15:34:59.206Z,4.50
2018-07-15T15:37:28.040Z,3.60
2018-07-15T15:39:56.958Z,3.77
2018-07-15T15:42:45.938Z,3.90
2018-07-15T15:45:14.615Z,3.50
2018-07-15T15:47:43.193Z,4.10
2018-07-15T15:50:13.201Z,4.97
2018-07-15T15:52:42.320Z,4.43
2018-07-15T15:55:11.581Z,5.60
2018-07-15T15:57:40.204Z,4.90
2018-07-15T16:00:10.364Z,4.60
2018-07-15T16:02:39.054Z,5.13
2018-07-15T16:05:09.059Z,4.03
2018-07-15T16:07:38.041Z,5.13
2018-07-15T16:10:07.792Z,4.80
2018-07-15T16:12:36.642Z,4.50
2018-07-15T16:15:05.645Z,5.27
2018-07-15T16:17:34.295Z,5.73
2018-07-15T16:20:02.906Z,4.47
2018-07-15T16:22:31.602Z,4.40
2018-07-15T16:27:50.464Z,4.20
2018-07-15T16:30:19.151Z,5.17
2018-07-15T16:32:48.048Z,4.17
2018-07-15T16:35:16.614Z,6.30
2018-07-15T16:37:45.398Z,6.57
2018-07-15T16:40:14.186Z,5.17
2018-07-15T16:42:42.880Z,5.37
2018-07-15T16:45:12.096Z,5.40
2018-07-15T16:47:40.776Z,5.30
2018-07-15T16:50:09.364Z,5.23
2018-07-15T16:52:37.969Z,5.20
2018-07-15T16:55:09.366Z,5.40
2018-07-15T16:57:37.968Z,5.40
2018-07-15T17:00:06.575Z,4.97
2018-07-15T17:02:35.414Z,5.20
2018-07-15T17:05:04.149Z,5.77
2018-07-15T17:07:32.800Z,4.87
2018-07-15T17:10:01.608Z,4.33
2018-07-15T17:12:30.161Z,5.20
2018-07-15T17:14:58.779Z,5.00
2018-07-15T17:17:27.420Z,4.77
2018-07-15T17:19:55.973Z,4.60
2018-07-15T17:22:24.589Z,4.50
2018-07-15T17:24:53.237Z,5.10
2018-07-15T17:27:21.897Z,5.00
2018-07-15T17:29:50.476Z,4.60
2018-07-15T17:32:19.330Z,5.57
2018-07-15T17:34:47.982Z,6.33
2018-07-15T17:37:16.545Z,7.90
2018-07-15T17:39:45.200Z,6.70
2018-07-15T17:42:13.738Z,7.30
2018-07-15T17:44:42.604Z,6.27
2018-07-15T17:47:11.941Z,5.33
2018-07-15T17:49:40.634Z,6.37
2018-07-15T17:52:09.244Z,6.90
2018-07-15T17:57:28.154Z,6.40
2018-07-15T17:59:56.692Z,5.93
2018-07-15T18:02:25.336Z,6.50
2018-07-15T18:04:54.032Z,5.70
2018-07-15T18:07:23.929Z,6.43
2018-07-15T18:09:52.527Z,5.77
2018-07-15T18:12:21.105Z,4.83
2018-07-15T18:14:50.102Z,4.87
2018-07-15T18:17:18.677Z,6.77
2018-07-15T18:19:47.871Z,6.10
2018-07-15T18:22:16.448Z,5.73
2018-07-15T18:24:45.139Z,7.40
2018-07-15T18:27:13.900Z,7.90
2018-07-15T18:29:42.429Z,9.20
2018-07-15T18:32:11.061Z,7.93
2018-07-15T18:34:39.688Z,5.60
2018-07-15T18:37:09.111Z,4.97
2018-07-15T18:39:37.710Z,5.70
2018-07-15T18:42:06.291Z,5.43
2018-07-15T18:44:34.877Z,5.67
2018-07-15T18:47:03.464Z,5.10
2018-07-15T18:49:32.025Z,5.13
2018-07-15T18:52:01.000Z,5.23
2018-07-15T18:54:29.635Z,4.97
2018-07-15T18:56:58.211Z,5.00
2018-07-15T18:59:26.932Z,5.60
2018-07-15T19:01:55.676Z,6.13
2018-07-15T19:04:24.308Z,5.00
2018-07-15T19:06:52.877Z,5.50
2018-07-15T19:09:21.501Z,5.60
2018-07-15T19:11:50.096Z,6.67
2018-07-15T19:14:19.336Z,6.73
2018-07-15T19:16:48.214Z,6.17
2018-07-15T19:19:16.755Z,5.80
2018-07-15T19:21:45.526Z,5.33
2018-07-15T19:24:14.241Z,4.53
2018-07-15T19:26:42.824Z,5.70
2018-07-15T19:29:11.992Z,5.63
2018-07-15T19:31:40.634Z,5.50
2018-07-15T19:34:09.284Z,4.93
2018-07-15T19:36:38.209Z,4.70
2018-07-15T19:39:07.904Z,5.13
2018-07-15T19:41:36.451Z,5.73
2018-07-15T19:44:05.472Z,6.20
2018-07-15T19:46:34.052Z,6.00
2018-07-15T19:49:02.703Z,4.90
2018-07-15T19:51:31.761Z,5.87
2018-07-15T19:54:00.361Z,5.57
2018-07-15T19:56:28.951Z,5.43
2018-07-15T19:58:57.526Z,5.70
2018-07-15T20:01:26.170Z,5.50
2018-07-15T20:03:54.695Z,5.50
2018-07-15T20:06:24.055Z,4.53
2018-07-15T20:08:53.092Z,5.57
2018-07-15T20:11:22.700Z,7.30
2018-07-15T20:13:51.319Z,6.33
2018-07-15T20:16:20.199Z,5.97
2018-07-15T20:18:48.779Z,5.20
2018-07-15T20:21:17.388Z,5.43
2018-07-15T20:23:45.958Z,5.53
2018-07-15T20:26:14.577Z,6.10
2018-07-15T20:28:43.173Z,6.30
2018-07-15T20:31:12.073Z,5.97
2018-07-15T20:33:40.764Z,6.53
2018-07-15T20:36:09.392Z,5.73
2018-07-15T20:38:38.204Z,5.73
2018-07-15T20:41:13.756Z,5.93
2018-07-15T20:43:42.599Z,7.17
2018-07-15T20:46:11.157Z,6.20
2018-07-15T20:48:39.893Z,5.13
2018-07-15T20:51:08.501Z,5.17
2018-07-15T20:53:38.304Z,6.63
2018-07-15T20:56:07.168Z,5.70
2018-07-15T20:58:36.270Z,5.90
2018-07-15T21:01:04.876Z,6.83
2018-07-15T21:03:33.660Z,5.60
2018-07-15T21:06:03.137Z,5.73
2018-07-15T21:08:31.714Z,6.00
2018-07-15T21:11:00.275Z,5.20
2018-07-15T21:13:28.831Z,5.17
2018-07-15T21:15:57.368Z,4.90
2018-07-15T21:18:25.948Z,5.60
2018-07-15T21:20:54.560Z,4.53
2018-07-15T21:23:23.123Z,5.87
2018-07-15T21:25:51.730Z,5.97
2018-07-15T21:28:20.355Z,6.00
2018-07-15T21:30:48.920Z,6.70
2018-07-15T21:33:17.505Z,4.83
2018-07-15T21:35:46.119Z,4.73
2018-07-15T21:38:14.821Z,6.30
2018-07-15T21:40:43.577Z,5.53
2018-07-15T21:43:13.393Z,6.57
2018-07-15T21:48:35.187Z,5.70
2018-07-15T21:51:03.742Z,6.20
2018-07-15T21:53:32.355Z,5.07
2018-07-15T21:56:00.939Z,6.20
2018-07-15T21:58:29.500Z,5.40
2018-07-15T22:00:58.092Z,5.80
2018-07-15T22:03:26.888Z,5.53
2018-07-15T22:05:56.295Z,5.00
2018-07-15T22:08:36.431Z,5.90
2018-07-15T22:11:05.061Z,4.80
2018-07-15T22:13:33.600Z,4.43
2018-07-15T22:16:02.266Z,5.63
2018-07-15T22:18:30.924Z,5.07
2018-07-15T22:20:59.488Z,5.50
2018-07-15T22:23:28.082Z,5.33
2018-07-15T22:25:56.646Z,5.07
2018-07-15T22:28:25.208Z,5.43
2018-07-15T22:30:53.968Z,6.47
2018-07-15T22:33:22.559Z,7.43
2018-07-15T22:35:51.183Z,8.33
2018-07-15T22:38:20.176Z,5.67
2018-07-15T22:40:48.824Z,5.33
2018-07-15T22:43:17.501Z,5.13
2018-07-15T22:45:46.136Z,5.30
2018-07-15T22:48:14.704Z,4.20
2018-07-15T22:50:44.186Z,5.53
2018-07-15T22:53:13.075Z,5.30
2018-07-15T22:55:41.669Z,5.53
2018-07-15T22:58:10.407Z,5.60
2018-07-15T23:00:39.008Z,5.70
2018-07-15T23:03:07.578Z,5.60
2018-07-15T23:05:48.544Z,5.63
2018-07-15T23:08:17.214Z,4.90
2018-07-15T23:10:45.863Z,5.07
2018-07-15T23:13:15.477Z,5.10
2018-07-15T23:15:44.376Z,5.30
2018-07-15T23:18:13.087Z,5.07
2018-07-15T23:20:42.523Z,5.00
2018-07-15T23:23:12.941Z,4.40
2018-07-15T23:25:41.960Z,4.83
2018-07-15T23:28:11.884Z,4.10
2018-07-15T23:30:41.180Z,4.93
2018-07-15T23:33:11.163Z,5.30
2018-07-15T23:35:40.125Z,4.83
2018-07-15T23:38:08.920Z,4.87
2018-07-15T23:40:37.639Z,4.57
2018-07-15T23:43:06.324Z,4.43
2018-07-15T23:45:36.048Z,4.37
2018-07-15T23:48:04.632Z,5.47
2018-07-15T23:50:33.260Z,5.37
2018-07-15T23:53:01.851Z,5.57
2018-07-15T23:55:30.666Z,4.77
2018-07-15T23:57:59.255Z,5.80
